Seago Felixstowe — OZCX2 — position and weather

sailwx.info

Track history (hours):
 
Tides and Currents Weather Stations Pressure Air Temp Water Temp Dewpoint Dewpoint Depression Visibility Wind Speed Wind Dir Waves Ship Positions

Seago Felixstowe

Last reported at 2017-Nov-19 04:31 UTC. Time now 2017-Nov-19 04:56 UTC.
Position N 51°21' E 004°16'.

Length 294 m; draft 12.9 m.

Type: Ship (hazmat cat A). MMSI: 219196000.

Date/timePositionNaut miles runAvg speedWind from/ knotsBaromVisibWave heightAir tempDewpointWater temp
2017-Nov-19 04:31N 51°21' E 004°16'1 1.8
2017-Nov-19 04:00N 51°21' E 004°15'3 6.5
2017-Nov-19 03:30N 51°24' E 004°12'611.4
2017-Nov-19 03:00N 51°22' E 004°03'4 8.4
2017-Nov-19 02:31N 51°25' E 003°58'714.4
2017-Nov-19 02:01N 51°21' E 003°48'713.1
2017-Nov-19 01:30N 51°26' E 003°41'612.0
2017-Nov-19 01:00N 51°25' E 003°32'612.9
2017-Nov-19 00:30N 51°24' E 003°21'612.8
2017-Nov-19 00:00N 51°24' E 003°11'612.7
2017-Nov-18 23:30N 51°25' E 003°01'510.4
2017-Nov-18 23:00N 51°30' E 003°04'713.7
2017-Nov-18 22:31N 51°35' E 003°10'814.8
2017-Nov-18 21:59N 51°43' E 003°13'611.7
2017-Nov-18 21:30N 51°48' E 003°16'9412.5
2017-Nov-18 14:03N 53°12' E 004°25'114.3
2017-Nov-18 14:01N 53°12' E 004°26'12411.3
2017-Nov-18 03:02N 53°60' E 007°39'111.5
2017-Nov-18 02:55N 53°59' E 007°40'1312.3
2017-Nov-18 01:50N 53°51' E 007°60'516.8
2017-Nov-18 01:30N 53°49' E 008°08'918.0
2017-Nov-18 01:00N 53°42' E 008°19'816.6
2017-Nov-18 00:30N 53°37' E 008°29'1 2.7
2017-Nov-18 00:00N 53°36' E 008°31'0 0.3
2017-Nov-17 23:29N 53°36' E 008°31'0 0.0
2017-Nov-17 22:59N 53°36' E 008°31'0 0.0
2017-Nov-17 22:29N 53°36' E 008°31'0 0.0
2017-Nov-17 21:59N 53°36' E 008°31'0 0.0
2017-Nov-17 21:29N 53°36' E 008°31'0 0.0
2017-Nov-17 21:00N 53°36' E 008°31'0 0.0
2017-Nov-17 20:30N 53°36' E 008°31'0 0.0
2017-Nov-17 20:00N 53°36' E 008°31'0 0.0
2017-Nov-17 19:30N 53°36' E 008°31'0 0.0
2017-Nov-17 19:00N 53°36' E 008°31'0 0.0
2017-Nov-17 18:27N 53°36' E 008°31'0 0.0
2017-Nov-17 18:00N 53°36' E 008°31'0 0.0
2017-Nov-17 17:30N 53°36' E 008°31'0 0.1
2017-Nov-17 17:00N 53°36' E 008°31'0 0.1
2017-Nov-17 16:30N 53°36' E 008°31'0 0.0
2017-Nov-17 16:00N 53°36' E 008°31'0 0.0
2017-Nov-17 15:30N 53°36' E 008°31'0 0.0
2017-Nov-17 15:00N 53°36' E 008°31'0 0.0
2017-Nov-17 14:30N 53°36' E 008°31'0 0.0
2017-Nov-17 14:00N 53°36' E 008°31'0 0.0
2017-Nov-17 13:30N 53°36' E 008°31'0 0.0
2017-Nov-17 13:00N 53°36' E 008°31'0 0.0
2017-Nov-17 12:30N 53°36' E 008°31'0 0.0
2017-Nov-17 12:00N 53°36' E 008°31'0 0.0
2017-Nov-17 11:30N 53°36' E 008°31'0 0.0
2017-Nov-17 11:00N 53°36' E 008°31'0 0.0
2017-Nov-17 10:27N 53°36' E 008°31'0 0.0
2017-Nov-17 10:00N 53°36' E 008°31'0 0.0
2017-Nov-17 09:30N 53°36' E 008°31'0 0.0
2017-Nov-17 09:00N 53°36' E 008°31'0 0.0
2017-Nov-17 08:30N 53°36' E 008°31'0 0.0
2017-Nov-17 08:00N 53°36' E 008°31'0 0.0
2017-Nov-17 07:30N 53°36' E 008°31'0 0.0
2017-Nov-17 07:00N 53°36' E 008°31'0 0.0
2017-Nov-17 06:30N 53°36' E 008°31'1 1.5
2017-Nov-17 06:00N 53°37' E 008°30'611.1
2017-Nov-17 05:30N 53°40' E 008°23'713.9
2017-Nov-17 05:01N 53°44' E 008°14'713.6
2017-Nov-17 04:30N 53°50' E 008°06'713.1
2017-Nov-17 04:00N 53°52' E 007°55'5 9.1
2017-Nov-17 03:30N 53°52' E 007°48'4 8.4
2017-Nov-17 03:00N 53°53' E 007°41'611.6
2017-Nov-17 02:30N 53°54' E 007°31'8617.2
2017-Nov-16 21:30N 53°30' E 005°11'2017.8
2017-Nov-16 20:22N 53°22' E 004°41'617.6
2017-Nov-16 20:00N 53°16' E 004°36'917.5
2017-Nov-16 19:31N 53°08' E 004°29'917.5
2017-Nov-16 19:01N 53°01' E 004°22'917.7
2017-Nov-16 18:31N 52°53' E 004°16'917.8
2017-Nov-16 18:00N 52°45' E 004°08'918.0
2017-Nov-16 17:30N 52°38' E 003°59'917.2
2017-Nov-16 17:01N 52°30' E 003°54'713.8
2017-Nov-16 16:31N 52°23' E 003°54'816.9
2017-Nov-16 16:00N 52°14' E 003°53'917.8
2017-Nov-16 15:30N 52°06' E 003°55'510.4
2017-Nov-16 15:00N 52°01' E 003°58'510.0
2017-Nov-16 14:31N 51°58' E 004°04'1 2.0
2017-Nov-16 14:00N 51°57' E 004°03'0 0.0
2017-Nov-16 13:30N 51°57' E 004°03'0 0.0
2017-Nov-16 13:00N 51°57' E 004°03'0 0.0
2017-Nov-16 12:30N 51°57' E 004°03'0 0.0
2017-Nov-16 12:00N 51°57' E 004°03'0 0.0
2017-Nov-16 11:30N 51°57' E 004°03'0 0.0
2017-Nov-16 11:00N 51°57' E 004°03'0 0.0
2017-Nov-16 10:30N 51°57' E 004°03'0 0.0
2017-Nov-16 10:00N 51°57' E 004°03'0 0.0
2017-Nov-16 09:30N 51°57' E 004°03'0 0.0
2017-Nov-16 09:00N 51°57' E 004°03'0 0.0
2017-Nov-16 08:30N 51°58' E 004°03'0 0.0
2017-Nov-16 08:00N 51°57' E 004°03'0 0.0
2017-Nov-16 07:30N 51°58' E 004°03'0 0.0
2017-Nov-16 07:00N 51°57' E 004°03'0 0.0
2017-Nov-16 06:30N 51°57' E 004°03'0 0.0
2017-Nov-16 06:00N 51°57' E 004°03'0 0.0
2017-Nov-16 05:30N 51°57' E 004°03'0 0.0
2017-Nov-16 05:00N 51°57' E 004°03'0 0.0
2017-Nov-16 04:30N 51°57' E 004°03'0 0.0
2017-Nov-16 04:00N 51°57' E 004°03'0 0.0
2017-Nov-16 03:30N 51°57' E 004°03'0 0.0
2017-Nov-16 03:00N 51°57' E 004°03'0 0.0
2017-Nov-16 02:30N 51°57' E 004°03'0 0.0
2017-Nov-16 02:00N 51°57' E 004°03'0 0.0
2017-Nov-16 01:30N 51°57' E 004°03'0 0.0
2017-Nov-16 01:00N 51°57' E 004°03'0 0.0
2017-Nov-16 00:30N 51°57' E 004°03'0 0.0
2017-Nov-16 00:00N 51°57' E 004°03'0 0.0
2017-Nov-15 23:30N 51°57' E 004°03'0 0.0
2017-Nov-15 22:57N 51°57' E 004°03'0 0.0
2017-Nov-15 22:30N 51°57' E 004°03'0 0.0
2017-Nov-15 22:00N 51°58' E 004°03'1 1.5
2017-Nov-15 21:31N 51°58' E 004°04'1 2.6
2017-Nov-15 21:00N 51°59' E 004°04'5 9.9
2017-Nov-15 20:30N 51°60' E 003°56'510.0
2017-Nov-15 20:00N 51°59' E 003°47'5 9.6
2017-Nov-15 19:30N 51°58' E 003°40'713.1
2017-Nov-15 19:00N 51°56' E 003°30'3 3.5
2017-Nov-15 18:13N 51°54' E 003°27'0 0.0
2017-Nov-15 17:52N 51°54' E 003°27'0 0.0
2017-Nov-15 13:19N 51°54' E 003°27'0 0.0
2017-Nov-15 04:34N 51°54' E 003°27'0 0.2
2017-Nov-15 04:28N 51°54' E 003°27'0 0.1
2017-Nov-15 03:16N 51°54' E 003°27'0 0.0
2017-Nov-15 02:58N 51°54' E 003°27'0 0.0
2017-Nov-15 02:25N 51°54' E 003°27'0 0.0
2017-Nov-15 01:52N 51°54' E 003°27'0 0.0
2017-Nov-15 00:10N 51°54' E 003°27'0 0.0
2017-Nov-14 23:43N 51°54' E 003°27'0 0.0
2017-Nov-14 22:49N 51°54' E 003°27'0 0.1
2017-Nov-14 18:49N 51°54' E 003°27'0 0.0
2017-Nov-14 18:25N 51°54' E 003°27'0 0.0
2017-Nov-14 17:58N 51°54' E 003°27'0 0.0
2017-Nov-14 17:28N 51°54' E 003°27'0 0.1
2017-Nov-14 16:55N 51°54' E 003°27'0 0.2
2017-Nov-14 16:28N 51°54' E 003°27'0 0.1
2017-Nov-14 15:58N 51°54' E 003°27'0 0.1
2017-Nov-14 15:22N 51°54' E 003°27'0 0.5
2017-Nov-14 14:59N 51°54' E 003°27'3 6.9
2017-Nov-14 14:30N 51°54' E 003°22'713.5
2017-Nov-14 14:00N 51°54' E 003°11'714.4
2017-Nov-14 13:29N 51°52' E 002°59'714.4
2017-Nov-14 12:58N 51°49' E 002°48'813.4
2017-Nov-14 12:21N 51°52' E 002°36'1714.4
2017-Nov-14 11:11N 51°53' E 002°08'315.6
2017-Nov-14 11:00N 51°52' E 002°04'815.6
2017-Nov-14 10:30N 51°48' E 001°53'713.2
2017-Nov-14 10:00N 51°51' E 001°43'510.7
2017-Nov-14 09:30N 51°52' E 001°34'510.6
2017-Nov-14 09:01N 51°56' E 001°30'713.6
2017-Nov-14 08:31N 51°56' E 001°19'2 3.0
2017-Nov-14 08:00N 51°58' E 001°18'0 0.0
2017-Nov-14 07:30N 51°58' E 001°18'0 0.0
2017-Nov-14 07:00N 51°58' E 001°18'0 0.0
2017-Nov-14 06:30N 51°58' E 001°18'0 0.0
2017-Nov-14 06:00N 51°58' E 001°18'0 0.0
2017-Nov-14 05:30N 51°58' E 001°18'0 0.0
2017-Nov-14 05:00N 51°58' E 001°18'0 0.0
2017-Nov-14 04:30N 51°58' E 001°18'0 0.0
2017-Nov-14 04:00N 51°58' E 001°18'0 0.0
2017-Nov-14 03:30N 51°58' E 001°18'0 0.0
2017-Nov-14 03:00N 51°58' E 001°18'0 0.0
2017-Nov-14 02:30N 51°58' E 001°18'0 0.0
2017-Nov-14 02:00N 51°58' E 001°18'0 0.0
2017-Nov-14 01:30N 51°57' E 001°18'0 0.0
2017-Nov-14 01:00N 51°58' E 001°18'0 0.0
2017-Nov-14 00:30N 51°58' E 001°18'0 0.0
2017-Nov-14 00:00N 51°58' E 001°18'0 0.0
2017-Nov-13 23:30N 51°58' E 001°18'0 0.0
2017-Nov-13 22:57N 51°57' E 001°18'0 0.1
2017-Nov-13 22:30N 51°58' E 001°18'0 0.0
2017-Nov-13 22:00N 51°58' E 001°18'174 8.0
2017-Nov-13 00:09N 49°59' W 002°05'414.4
2017-Nov-12 23:54N 49°58' W 002°10'614.1
2017-Nov-12 23:27N 49°56' W 002°20'813.6
2017-Nov-12 22:51N 49°54' W 002°32'1913.0
2017-Nov-12 21:22N 49°48' W 003°00'512.6
2017-Nov-12 21:00N 49°46' W 003°07'612.5
2017-Nov-12 20:30N 49°42' W 003°14'6112.4
2017-Nov-12 15:35N 49°10' W 004°34'112.3
2017-Nov-12 15:30N 49°10' W 004°36'612.1
2017-Nov-12 15:00N 49°07' W 004°43'612.5
2017-Nov-12 14:29N 49°03' W 004°52'712.8
2017-Nov-12 13:56N 48°60' W 005°01'512.6
2017-Nov-12 13:31N 48°57' W 005°08'612.9
2017-Nov-12 13:00N 48°54' W 005°16'713.5
2017-Nov-12 12:30N 48°50' W 005°25'713.8
2017-Nov-12 12:00N 48°47' W 005°35'713.7
2017-Nov-12 11:30N 48°42' W 005°42'713.7
2017-Nov-12 10:59N 48°36' W 005°47'714.0
2017-Nov-12 10:30N 48°30' W 005°51'714.1
2017-Nov-12 09:59N 48°23' W 005°56'55813.5
2017-Nov-10 16:43N 39°32' W 009°52'313.0
2017-Nov-10 16:30N 39°29' W 009°52'713.5
2017-Nov-10 16:00N 39°22' W 009°52'713.5
2017-Nov-10 15:30N 39°15' W 009°51'713.4
2017-Nov-10 15:00N 39°09' W 009°51'713.7
2017-Nov-10 14:30N 39°02' W 009°52'713.5
2017-Nov-10 14:00N 38°55' W 009°52'713.8
2017-Nov-10 13:30N 38°48' W 009°52'713.7
2017-Nov-10 13:00N 38°41' W 009°51'713.4
2017-Nov-10 12:30N 38°35' W 009°50'613.0
2017-Nov-10 12:00N 38°28' W 009°49'713.1
2017-Nov-10 11:30N 38°22' W 009°47'713.5
2017-Nov-10 11:00N 38°15' W 009°46'713.4
2017-Nov-10 10:30N 38°09' W 009°44'713.7
2017-Nov-10 10:00N 38°02' W 009°41'917.6
2017-Nov-10 09:30N 37°54' W 009°38'918.0
2017-Nov-10 09:00N 37°45' W 009°34'714.1
2017-Nov-10 08:30N 37°38' W 009°32'4414.0
2017-Nov-10 05:23N 36°55' W 009°20'2713.3
2017-Nov-10 03:21N 36°40' W 008°53'514.3
2017-Nov-10 03:00N 36°38' W 008°47'  
Track history (hours):
 
Tides and Currents Weather Stations Pressure Air Temp Water Temp Dewpoint Dewpoint Depression Visibility Wind Speed Wind Dir Waves Ship Positions

Seago Felixstowe

Last reported at 2017-Nov-19 04:31 UTC. Time now 2017-Nov-19 04:56 UTC.
Position N 51°21' E 004°16'.

Length 294 m; draft 12.9 m.

Type: Ship (hazmat cat A). MMSI: 219196000.

Date/timePositionNaut miles runAvg speedWind from/ knotsBaromVisibWave heightAir tempDewpointWater temp
2017-Nov-19 04:31N 51°21' E 004°16'1 1.8
2017-Nov-19 04:00N 51°21' E 004°15'3 6.5
2017-Nov-19 03:30N 51°24' E 004°12'611.4
2017-Nov-19 03:00N 51°22' E 004°03'4 8.4
2017-Nov-19 02:31N 51°25' E 003°58'714.4
2017-Nov-19 02:01N 51°21' E 003°48'713.1
2017-Nov-19 01:30N 51°26' E 003°41'612.0
2017-Nov-19 01:00N 51°25' E 003°32'612.9
2017-Nov-19 00:30N 51°24' E 003°21'612.8
2017-Nov-19 00:00N 51°24' E 003°11'612.7
2017-Nov-18 23:30N 51°25' E 003°01'510.4
2017-Nov-18 23:00N 51°30' E 003°04'713.7
2017-Nov-18 22:31N 51°35' E 003°10'814.8
2017-Nov-18 21:59N 51°43' E 003°13'611.7
2017-Nov-18 21:30N 51°48' E 003°16'9412.5
2017-Nov-18 14:03N 53°12' E 004°25'114.3
2017-Nov-18 14:01N 53°12' E 004°26'12411.3
2017-Nov-18 03:02N 53°60' E 007°39'111.5
2017-Nov-18 02:55N 53°59' E 007°40'1312.3
2017-Nov-18 01:50N 53°51' E 007°60'516.8
2017-Nov-18 01:30N 53°49' E 008°08'918.0
2017-Nov-18 01:00N 53°42' E 008°19'816.6
2017-Nov-18 00:30N 53°37' E 008°29'1 2.7
2017-Nov-18 00:00N 53°36' E 008°31'0 0.3
2017-Nov-17 23:29N 53°36' E 008°31'0 0.0
2017-Nov-17 22:59N 53°36' E 008°31'0 0.0
2017-Nov-17 22:29N 53°36' E 008°31'0 0.0
2017-Nov-17 21:59N 53°36' E 008°31'0 0.0
2017-Nov-17 21:29N 53°36' E 008°31'0 0.0
2017-Nov-17 21:00N 53°36' E 008°31'0 0.0
2017-Nov-17 20:30N 53°36' E 008°31'0 0.0
2017-Nov-17 20:00N 53°36' E 008°31'0 0.0
2017-Nov-17 19:30N 53°36' E 008°31'0 0.0
2017-Nov-17 19:00N 53°36' E 008°31'0 0.0
2017-Nov-17 18:27N 53°36' E 008°31'0 0.0
2017-Nov-17 18:00N 53°36' E 008°31'0 0.0
2017-Nov-17 17:30N 53°36' E 008°31'0 0.1
2017-Nov-17 17:00N 53°36' E 008°31'0 0.1
2017-Nov-17 16:30N 53°36' E 008°31'0 0.0
2017-Nov-17 16:00N 53°36' E 008°31'0 0.0
2017-Nov-17 15:30N 53°36' E 008°31'0 0.0
2017-Nov-17 15:00N 53°36' E 008°31'0 0.0
2017-Nov-17 14:30N 53°36' E 008°31'0 0.0
2017-Nov-17 14:00N 53°36' E 008°31'0 0.0
2017-Nov-17 13:30N 53°36' E 008°31'0 0.0
2017-Nov-17 13:00N 53°36' E 008°31'0 0.0
2017-Nov-17 12:30N 53°36' E 008°31'0 0.0
2017-Nov-17 12:00N 53°36' E 008°31'0 0.0
2017-Nov-17 11:30N 53°36' E 008°31'0 0.0
2017-Nov-17 11:00N 53°36' E 008°31'0 0.0
2017-Nov-17 10:27N 53°36' E 008°31'0 0.0
2017-Nov-17 10:00N 53°36' E 008°31'0 0.0
2017-Nov-17 09:30N 53°36' E 008°31'0 0.0
2017-Nov-17 09:00N 53°36' E 008°31'0 0.0
2017-Nov-17 08:30N 53°36' E 008°31'0 0.0
2017-Nov-17 08:00N 53°36' E 008°31'0 0.0
2017-Nov-17 07:30N 53°36' E 008°31'0 0.0
2017-Nov-17 07:00N 53°36' E 008°31'0 0.0
2017-Nov-17 06:30N 53°36' E 008°31'1 1.5
2017-Nov-17 06:00N 53°37' E 008°30'611.1
2017-Nov-17 05:30N 53°40' E 008°23'713.9
2017-Nov-17 05:01N 53°44' E 008°14'713.6
2017-Nov-17 04:30N 53°50' E 008°06'713.1
2017-Nov-17 04:00N 53°52' E 007°55'5 9.1
2017-Nov-17 03:30N 53°52' E 007°48'4 8.4
2017-Nov-17 03:00N 53°53' E 007°41'611.6
2017-Nov-17 02:30N 53°54' E 007°31'8617.2
2017-Nov-16 21:30N 53°30' E 005°11'2017.8
2017-Nov-16 20:22N 53°22' E 004°41'617.6
2017-Nov-16 20:00N 53°16' E 004°36'917.5
2017-Nov-16 19:31N 53°08' E 004°29'917.5
2017-Nov-16 19:01N 53°01' E 004°22'917.7
2017-Nov-16 18:31N 52°53' E 004°16'917.8
2017-Nov-16 18:00N 52°45' E 004°08'918.0
2017-Nov-16 17:30N 52°38' E 003°59'917.2
2017-Nov-16 17:01N 52°30' E 003°54'713.8
2017-Nov-16 16:31N 52°23' E 003°54'816.9
2017-Nov-16 16:00N 52°14' E 003°53'917.8
2017-Nov-16 15:30N 52°06' E 003°55'510.4
2017-Nov-16 15:00N 52°01' E 003°58'510.0
2017-Nov-16 14:31N 51°58' E 004°04'1 2.0
2017-Nov-16 14:00N 51°57' E 004°03'0 0.0
2017-Nov-16 13:30N 51°57' E 004°03'0 0.0
2017-Nov-16 13:00N 51°57' E 004°03'0 0.0
2017-Nov-16 12:30N 51°57' E 004°03'0 0.0
2017-Nov-16 12:00N 51°57' E 004°03'0 0.0
2017-Nov-16 11:30N 51°57' E 004°03'0 0.0
2017-Nov-16 11:00N 51°57' E 004°03'0 0.0
2017-Nov-16 10:30N 51°57' E 004°03'0 0.0
2017-Nov-16 10:00N 51°57' E 004°03'0 0.0
2017-Nov-16 09:30N 51°57' E 004°03'0 0.0
2017-Nov-16 09:00N 51°57' E 004°03'0 0.0
2017-Nov-16 08:30N 51°58' E 004°03'0 0.0
2017-Nov-16 08:00N 51°57' E 004°03'0 0.0
2017-Nov-16 07:30N 51°58' E 004°03'0 0.0
2017-Nov-16 07:00N 51°57' E 004°03'0 0.0
2017-Nov-16 06:30N 51°57' E 004°03'0 0.0
2017-Nov-16 06:00N 51°57' E 004°03'0 0.0
2017-Nov-16 05:30N 51°57' E 004°03'0 0.0
2017-Nov-16 05:00N 51°57' E 004°03'0 0.0
2017-Nov-16 04:30N 51°57' E 004°03'0 0.0
2017-Nov-16 04:00N 51°57' E 004°03'0 0.0
2017-Nov-16 03:30N 51°57' E 004°03'0 0.0
2017-Nov-16 03:00N 51°57' E 004°03'0 0.0
2017-Nov-16 02:30N 51°57' E 004°03'0 0.0
2017-Nov-16 02:00N 51°57' E 004°03'0 0.0
2017-Nov-16 01:30N 51°57' E 004°03'0 0.0
2017-Nov-16 01:00N 51°57' E 004°03'0 0.0
2017-Nov-16 00:30N 51°57' E 004°03'0 0.0
2017-Nov-16 00:00N 51°57' E 004°03'0 0.0
2017-Nov-15 23:30N 51°57' E 004°03'0 0.0
2017-Nov-15 22:57N 51°57' E 004°03'0 0.0
2017-Nov-15 22:30N 51°57' E 004°03'0 0.0
2017-Nov-15 22:00N 51°58' E 004°03'1 1.5
2017-Nov-15 21:31N 51°58' E 004°04'1 2.6
2017-Nov-15 21:00N 51°59' E 004°04'5 9.9
2017-Nov-15 20:30N 51°60' E 003°56'510.0
2017-Nov-15 20:00N 51°59' E 003°47'5 9.6
2017-Nov-15 19:30N 51°58' E 003°40'713.1
2017-Nov-15 19:00N 51°56' E 003°30'3 3.5
2017-Nov-15 18:13N 51°54' E 003°27'0 0.0
2017-Nov-15 17:52N 51°54' E 003°27'0 0.0
2017-Nov-15 13:19N 51°54' E 003°27'0 0.0
2017-Nov-15 04:34N 51°54' E 003°27'0 0.2
2017-Nov-15 04:28N 51°54' E 003°27'0 0.1
2017-Nov-15 03:16N 51°54' E 003°27'0 0.0
2017-Nov-15 02:58N 51°54' E 003°27'0 0.0
2017-Nov-15 02:25N 51°54' E 003°27'0 0.0
2017-Nov-15 01:52N 51°54' E 003°27'0 0.0
2017-Nov-15 00:10N 51°54' E 003°27'0 0.0
2017-Nov-14 23:43N 51°54' E 003°27'0 0.0
2017-Nov-14 22:49N 51°54' E 003°27'0 0.1
2017-Nov-14 18:49N 51°54' E 003°27'0 0.0
2017-Nov-14 18:25N 51°54' E 003°27'0 0.0
2017-Nov-14 17:58N 51°54' E 003°27'0 0.0
2017-Nov-14 17:28N 51°54' E 003°27'0 0.1
2017-Nov-14 16:55N 51°54' E 003°27'0 0.2
2017-Nov-14 16:28N 51°54' E 003°27'0 0.1
2017-Nov-14 15:58N 51°54' E 003°27'0 0.1
2017-Nov-14 15:22N 51°54' E 003°27'0 0.5
2017-Nov-14 14:59N 51°54' E 003°27'3 6.9
2017-Nov-14 14:30N 51°54' E 003°22'713.5
2017-Nov-14 14:00N 51°54' E 003°11'714.4
2017-Nov-14 13:29N 51°52' E 002°59'714.4
2017-Nov-14 12:58N 51°49' E 002°48'813.4
2017-Nov-14 12:21N 51°52' E 002°36'1714.4
2017-Nov-14 11:11N 51°53' E 002°08'315.6
2017-Nov-14 11:00N 51°52' E 002°04'815.6
2017-Nov-14 10:30N 51°48' E 001°53'713.2
2017-Nov-14 10:00N 51°51' E 001°43'510.7
2017-Nov-14 09:30N 51°52' E 001°34'510.6
2017-Nov-14 09:01N 51°56' E 001°30'713.6
2017-Nov-14 08:31N 51°56' E 001°19'2 3.0
2017-Nov-14 08:00N 51°58' E 001°18'0 0.0
2017-Nov-14 07:30N 51°58' E 001°18'0 0.0
2017-Nov-14 07:00N 51°58' E 001°18'0 0.0
2017-Nov-14 06:30N 51°58' E 001°18'0 0.0
2017-Nov-14 06:00N 51°58' E 001°18'0 0.0
2017-Nov-14 05:30N 51°58' E 001°18'0 0.0
2017-Nov-14 05:00N 51°58' E 001°18'0 0.0
2017-Nov-14 04:30N 51°58' E 001°18'0 0.0
2017-Nov-14 04:00N 51°58' E 001°18'0 0.0
2017-Nov-14 03:30N 51°58' E 001°18'0 0.0
2017-Nov-14 03:00N 51°58' E 001°18'0 0.0
2017-Nov-14 02:30N 51°58' E 001°18'0 0.0
2017-Nov-14 02:00N 51°58' E 001°18'0 0.0
2017-Nov-14 01:30N 51°57' E 001°18'0 0.0
2017-Nov-14 01:00N 51°58' E 001°18'0 0.0
2017-Nov-14 00:30N 51°58' E 001°18'0 0.0
2017-Nov-14 00:00N 51°58' E 001°18'0 0.0
2017-Nov-13 23:30N 51°58' E 001°18'0 0.0
2017-Nov-13 22:57N 51°57' E 001°18'0 0.1
2017-Nov-13 22:30N 51°58' E 001°18'0 0.0
2017-Nov-13 22:00N 51°58' E 001°18'174 8.0
2017-Nov-13 00:09N 49°59' W 002°05'414.4
2017-Nov-12 23:54N 49°58' W 002°10'614.1
2017-Nov-12 23:27N 49°56' W 002°20'813.6
2017-Nov-12 22:51N 49°54' W 002°32'1913.0
2017-Nov-12 21:22N 49°48' W 003°00'512.6
2017-Nov-12 21:00N 49°46' W 003°07'612.5
2017-Nov-12 20:30N 49°42' W 003°14'6112.4
2017-Nov-12 15:35N 49°10' W 004°34'112.3
2017-Nov-12 15:30N 49°10' W 004°36'612.1
2017-Nov-12 15:00N 49°07' W 004°43'612.5
2017-Nov-12 14:29N 49°03' W 004°52'712.8
2017-Nov-12 13:56N 48°60' W 005°01'512.6
2017-Nov-12 13:31N 48°57' W 005°08'612.9
2017-Nov-12 13:00N 48°54' W 005°16'713.5
2017-Nov-12 12:30N 48°50' W 005°25'713.8
2017-Nov-12 12:00N 48°47' W 005°35'713.7
2017-Nov-12 11:30N 48°42' W 005°42'713.7
2017-Nov-12 10:59N 48°36' W 005°47'714.0
2017-Nov-12 10:30N 48°30' W 005°51'714.1
2017-Nov-12 09:59N 48°23' W 005°56'55813.5
2017-Nov-10 16:43N 39°32' W 009°52'313.0
2017-Nov-10 16:30N 39°29' W 009°52'713.5
2017-Nov-10 16:00N 39°22' W 009°52'713.5
2017-Nov-10 15:30N 39°15' W 009°51'713.4
2017-Nov-10 15:00N 39°09' W 009°51'713.7
2017-Nov-10 14:30N 39°02' W 009°52'713.5
2017-Nov-10 14:00N 38°55' W 009°52'713.8
2017-Nov-10 13:30N 38°48' W 009°52'713.7
2017-Nov-10 13:00N 38°41' W 009°51'713.4
2017-Nov-10 12:30N 38°35' W 009°50'613.0
2017-Nov-10 12:00N 38°28' W 009°49'713.1
2017-Nov-10 11:30N 38°22' W 009°47'713.5
2017-Nov-10 11:00N 38°15' W 009°46'713.4
2017-Nov-10 10:30N 38°09' W 009°44'713.7
2017-Nov-10 10:00N 38°02' W 009°41'917.6
2017-Nov-10 09:30N 37°54' W 009°38'918.0
2017-Nov-10 09:00N 37°45' W 009°34'714.1
2017-Nov-10 08:30N 37°38' W 009°32'4414.0
2017-Nov-10 05:23N 36°55' W 009°20'2713.3
2017-Nov-10 03:21N 36°40' W 008°53'514.3
2017-Nov-10 03:00N 36°38' W 008°47'  

Dump ship's entire track history